Time,TemperatureF,DewpointF,PressureIn,WindDirection,WindDirectionDegrees,WindSpeedMPH,WindSpeedGustMPH,Humidity,HourlyPrecipIn,Conditions,Clouds,dailyrainin,SoftwareType,DateUTC
2013-07-18 00:00:00,72.8,71.9,30.10,WSW,257,0.0,0.0,97,0.00,,,1.40,Wunderground v.1.15,2013-07-18 04:00:00,
2013-07-18 00:05:00,72.8,71.9,30.10,WSW,257,0.0,0.0,97,0.00,,,0.00,Wunderground v.1.15,2013-07-18 04:05:00,
2013-07-18 00:10:00,72.8,71.9,30.10,WSW,257,0.0,0.0,97,0.00,,,0.00,Wunderground v.1.15,2013-07-18 04:10:00,
2013-07-18 00:20:00,72.8,71.9,30.10,WSW,257,0.0,0.0,97,0.00,,,0.00,Wunderground v.1.15,2013-07-18 04:20:00,
2013-07-18 00:25:00,72.8,71.9,30.10,WSW,257,0.0,0.0,97,0.00,,,0.00,Wunderground v.1.15,2013-07-18 04:25:00,
2013-07-18 00:30:00,72.8,71.9,30.10,WSW,257,0.0,0.0,97,0.00,,,0.00,Wunderground v.1.15,2013-07-18 04:30:00,
2013-07-18 00:35:00,72.8,71.9,30.10,WSW,257,0.0,0.0,97,0.00,,,0.00,Wunderground v.1.15,2013-07-18 04:35:00,
2013-07-18 00:45:00,72.7,71.8,30.10,WSW,257,0.0,0.0,97,0.00,,,0.00,Wunderground v.1.15,2013-07-18 04:45:00,
2013-07-18 00:55:00,72.7,71.8,30.09,WSW,257,0.0,0.0,97,0.00,,,0.00,Wunderground v.1.15,2013-07-18 04:55:00,
2013-07-18 01:00:00,72.6,71.7,30.09,WSW,257,0.0,0.0,97,0.00,,,0.00,Wunderground v.1.15,2013-07-18 05:00:00,
2013-07-18 01:10:00,72.7,71.8,30.09,WSW,257,0.0,0.0,97,0.00,,,0.00,Wunderground v.1.15,2013-07-18 05:10:00,
2013-07-18 01:15:00,72.6,71.7,30.09,WSW,257,0.0,0.0,97,0.00,,,0.00,Wunderground v.1.15,2013-07-18 05:15:00,
2013-07-18 01:25:00,72.5,71.6,30.09,WSW,257,0.0,0.0,97,0.00,,,0.00,Wunderground v.1.15,2013-07-18 05:25:00,
2013-07-18 01:35:00,72.6,71.7,30.10,WSW,257,0.0,1.0,97,0.00,,,0.00,Wunderground v.1.15,2013-07-18 05:35:00,
2013-07-18 01:40:00,72.6,71.7,30.10,WSW,257,0.0,0.0,97,0.00,,,0.00,Wunderground v.1.15,2013-07-18 05:40:00,
2013-07-18 01:50:00,72.6,71.7,30.09,WSW,257,0.0,1.0,97,0.00,,,0.00,Wunderground v.1.15,2013-07-18 05:50:00,
2013-07-18 02:00:00,72.7,71.8,30.09,WSW,257,0.0,0.0,97,0.00,,,0.00,Wunderground v.1.15,2013-07-18 06:00:00,
2013-07-18 02:10:00,72.8,71.9,30.09,WSW,257,0.0,0.0,97,0.00,,,0.00,Wunderground v.1.15,2013-07-18 06:10:00,
2013-07-18 02:20:00,72.7,71.8,30.09,WSW,257,0.0,0.0,97,0.00,,,0.00,Wunderground v.1.15,2013-07-18 06:20:00,
2013-07-18 02:30:00,72.8,71.9,30.08,WSW,257,0.0,0.0,97,0.00,,,0.00,Wunderground v.1.15,2013-07-18 06:30:00,
2013-07-18 02:40:00,72.7,71.8,30.08,WSW,257,0.0,0.0,97,0.00,,,0.00,Wunderground v.1.15,2013-07-18 06:40:00,
2013-07-18 02:45:00,72.7,71.8,30.08,WSW,257,0.0,0.0,97,0.00,,,0.00,Wunderground v.1.15,2013-07-18 06:45:00,
2013-07-18 02:55:00,72.6,72.0,30.08,WSW,257,0.0,2.0,98,0.00,,,0.00,Wunderground v.1.15,2013-07-18 06:55:00,
2013-07-18 03:00:00,72.6,72.0,30.08,WSW,257,0.0,1.0,98,0.00,,,0.00,Wunderground v.1.15,2013-07-18 07:00:00,
2013-07-18 03:10:00,72.6,72.0,30.07,WSW,257,0.0,1.0,98,0.00,,,0.00,Wunderground v.1.15,2013-07-18 07:10:00,
2013-07-18 03:15:00,72.5,71.9,30.07,WSW,257,1.0,1.0,98,0.00,,,0.00,Wunderground v.1.15,2013-07-18 07:15:00,
2013-07-18 03:25:00,72.5,71.9,30.07,WSW,257,0.0,1.0,98,0.00,,,0.00,Wunderground v.1.15,2013-07-18 07:25:00,
2013-07-18 03:35:00,72.5,71.9,30.07,WSW,257,0.0,0.0,98,0.00,,,0.00,Wunderground v.1.15,2013-07-18 07:35:00,
2013-07-18 03:40:00,72.4,71.8,30.07,WSW,257,0.0,0.0,98,0.00,,,0.00,Wunderground v.1.15,2013-07-18 07:40:00,
2013-07-18 03:50:00,72.5,71.9,30.07,WSW,257,0.0,0.0,98,0.00,,,0.00,Wunderground v.1.15,2013-07-18 07:50:00,
2013-07-18 03:55:00,72.5,71.9,30.06,WSW,257,0.0,0.0,98,0.00,,,0.00,Wunderground v.1.15,2013-07-18 07:55:00,
2013-07-18 04:05:00,72.7,72.1,30.06,WSW,257,1.0,2.0,98,0.00,,,0.00,Wunderground v.1.15,2013-07-18 08:05:00,
2013-07-18 04:10:00,72.8,72.2,30.06,WSW,257,1.0,1.0,98,0.00,,,0.00,Wunderground v.1.15,2013-07-18 08:10:00,
2013-07-18 04:20:00,72.7,72.1,30.06,WSW,257,0.0,0.0,98,0.00,,,0.00,Wunderground v.1.15,2013-07-18 08:20:00,
2013-07-18 04:25:00,72.7,72.1,30.06,WSW,257,0.0,0.0,98,0.00,,,0.00,Wunderground v.1.15,2013-07-18 08:25:00,
2013-07-18 04:35:00,72.8,72.2,30.06,WSW,257,0.0,0.0,98,0.00,,,0.00,Wunderground v.1.15,2013-07-18 08:35:00,
2013-07-18 04:40:00,72.8,72.2,30.06,WSW,257,0.0,1.0,98,0.00,,,0.00,Wunderground v.1.15,2013-07-18 08:40:00,
2013-07-18 04:50:00,72.7,72.1,30.06,WSW,257,0.0,0.0,98,0.00,,,0.00,Wunderground v.1.15,2013-07-18 08:50:00,
2013-07-18 05:00:00,72.5,71.9,30.07,WSW,257,1.0,1.0,98,0.00,,,0.00,Wunderground v.1.15,2013-07-18 09:00:00,